sensor_id;sensor_type;location;lat;lon;timestamp;temperature;humidity
2687;DHT22;1353;51.386;7.028;2022-11-20T00:01:27;-2.80;99.90
2687;DHT22;1353;51.386;7.028;2022-11-20T00:03:57;-2.80;99.90
2687;DHT22;1353;51.386;7.028;2022-11-20T00:06:24;-2.90;99.90
2687;DHT22;1353;51.386;7.028;2022-11-20T00:08:53;-2.90;99.90
2687;DHT22;1353;51.386;7.028;2022-11-20T00:11:22;-2.90;99.90
2687;DHT22;1353;51.386;7.028;2022-11-20T00:13:52;-2.70;99.90
2687;DHT22;1353;51.386;7.028;2022-11-20T00:16:20;-2.40;99.90
2687;DHT22;1353;51.386;7.028;2022-11-20T00:18:48;-2.30;99.90
2687;DHT22;1353;51.386;7.028;2022-11-20T00:21:18;-2.30;99.90
2687;DHT22;1353;51.386;7.028;2022-11-20T00:23:46;-2.40;99.90
2687;DHT22;1353;51.386;7.028;2022-11-20T00:26:14;-2.50;99.90
2687;DHT22;1353;51.386;7.028;2022-11-20T00:28:42;-2.40;99.90
2687;DHT22;1353;51.386;7.028;2022-11-20T00:31:11;-2.40;99.90
2687;DHT22;1353;51.386;7.028;2022-11-20T00:33:38;-2.40;99.90
2687;DHT22;1353;51.386;7.028;2022-11-20T00:36:08;-2.30;99.90
2687;DHT22;1353;51.386;7.028;2022-11-20T00:38:37;-2.30;99.90
2687;DHT22;1353;51.386;7.028;2022-11-20T00:41:06;-2.20;99.90
2687;DHT22;1353;51.386;7.028;2022-11-20T00:43:33;-2.20;99.90
2687;DHT22;1353;51.386;7.028;2022-11-20T00:46:02;-2.10;99.90
2687;DHT22;1353;51.386;7.028;2022-11-20T00:48:29;-2.00;99.90
2687;DHT22;1353;51.386;7.028;2022-11-20T00:50:56;-2.00;99.90
2687;DHT22;1353;51.386;7.028;2022-11-20T00:53:23;-2.00;99.90
2687;DHT22;1353;51.386;7.028;2022-11-20T00:55:56;-1.90;99.90
2687;DHT22;1353;51.386;7.028;2022-11-20T00:58:24;-1.80;99.90
2687;DHT22;1353;51.386;7.028;2022-11-20T01:00:51;-1.70;99.90
2687;DHT22;1353;51.386;7.028;2022-11-20T01:03:18;-1.60;99.90
2687;DHT22;1353;51.386;7.028;2022-11-20T01:05:45;-1.50;99.90
2687;DHT22;1353;51.386;7.028;2022-11-20T01:08:12;-1.50;99.90
2687;DHT22;1353;51.386;7.028;2022-11-20T01:10:39;-1.50;99.90
2687;DHT22;1353;51.386;7.028;2022-11-20T01:13:07;-1.50;99.90
2687;DHT22;1353;51.386;7.028;2022-11-20T01:15:51;-1.40;99.90
2687;DHT22;1353;51.386;7.028;2022-11-20T01:18:18;-1.40;99.90
2687;DHT22;1353;51.386;7.028;2022-11-20T01:20:44;-1.40;99.90
2687;DHT22;1353;51.386;7.028;2022-11-20T01:23:11;-1.40;99.90
2687;DHT22;1353;51.386;7.028;2022-11-20T01:25:38;-1.40;99.90
2687;DHT22;1353;51.386;7.028;2022-11-20T01:28:06;-1.40;99.90
2687;DHT22;1353;51.386;7.028;2022-11-20T01:30:33;-1.40;99.90
2687;DHT22;1353;51.386;7.028;2022-11-20T01:32:59;-1.40;99.90
2687;DHT22;1353;51.386;7.028;2022-11-20T01:35:26;-1.40;99.90
2687;DHT22;1353;51.386;7.028;2022-11-20T01:37:53;-1.40;99.90
2687;DHT22;1353;51.386;7.028;2022-11-20T01:40:20;-1.40;99.90
2687;DHT22;1353;51.386;7.028;2022-11-20T01:42:53;-1.40;99.90
2687;DHT22;1353;51.386;7.028;2022-11-20T01:46:06;-1.30;99.90
2687;DHT22;1353;51.386;7.028;2022-11-20T01:48:42;-1.30;99.90
2687;DHT22;1353;51.386;7.028;2022-11-20T01:51:15;-1.20;99.90
2687;DHT22;1353;51.386;7.028;2022-11-20T01:53:43;-1.10;99.90
2687;DHT22;1353;51.386;7.028;2022-11-20T01:56:12;-1.10;99.90
2687;DHT22;1353;51.386;7.028;2022-11-20T01:58:43;-1.00;99.90
2687;DHT22;1353;51.386;7.028;2022-11-20T02:01:13;-0.90;99.90
2687;DHT22;1353;51.386;7.028;2022-11-20T02:03:41;-0.80;99.90
2687;DHT22;1353;51.386;7.028;2022-11-20T02:06:13;-0.80;99.90
2687;DHT22;1353;51.386;7.028;2022-11-20T02:08:41;-0.80;99.90
2687;DHT22;1353;51.386;7.028;2022-11-20T02:11:09;-0.80;99.90
2687;DHT22;1353;51.386;7.028;2022-11-20T02:13:35;-0.80;99.90
2687;DHT22;1353;51.386;7.028;2022-11-20T02:16:14;-0.70;99.90
2687;DHT22;1353;51.386;7.028;2022-11-20T02:18:42;-0.70;99.90
2687;DHT22;1353;51.386;7.028;2022-11-20T02:21:18;-0.60;99.90
2687;DHT22;1353;51.386;7.028;2022-11-20T02:24:02;-0.60;99.90
2687;DHT22;1353;51.386;7.028;2022-11-20T02:26:32;-0.60;99.90
2687;DHT22;1353;51.386;7.028;2022-11-20T02:29:02;-0.60;99.90
2687;DHT22;1353;51.386;7.028;2022-11-20T02:31:33;-0.60;99.90
2687;DHT22;1353;51.386;7.028;2022-11-20T02:34:00;-0.60;99.90
2687;DHT22;1353;51.386;7.028;2022-11-20T02:36:27;-0.60;99.90
2687;DHT22;1353;51.386;7.028;2022-11-20T02:38:55;-0.60;99.90
2687;DHT22;1353;51.386;7.028;2022-11-20T02:41:30;-0.60;99.90
2687;DHT22;1353;51.386;7.028;2022-11-20T02:43:57;-0.50;99.90
2687;DHT22;1353;51.386;7.028;2022-11-20T02:46:24;-0.50;99.90
2687;DHT22;1353;51.386;7.028;2022-11-20T02:48:50;-0.50;99.90
2687;DHT22;1353;51.386;7.028;2022-11-20T02:51:17;-0.50;99.90
2687;DHT22;1353;51.386;7.028;2022-11-20T02:53:44;-0.50;99.90
2687;DHT22;1353;51.386;7.028;2022-11-20T02:56:11;-0.70;99.90
2687;DHT22;1353;51.386;7.028;2022-11-20T02:58:39;-0.70;99.90
2687;DHT22;1353;51.386;7.028;2022-11-20T03:01:05;-0.60;99.90
2687;DHT22;1353;51.386;7.028;2022-11-20T03:03:32;-0.60;99.90
2687;DHT22;1353;51.386;7.028;2022-11-20T03:05:59;-0.50;99.90
2687;DHT22;1353;51.386;7.028;2022-11-20T03:08:26;-0.40;99.90
2687;DHT22;1353;51.386;7.028;2022-11-20T03:10:53;-0.40;99.90
2687;DHT22;1353;51.386;7.028;2022-11-20T03:13:20;-0.40;99.90
2687;DHT22;1353;51.386;7.028;2022-11-20T03:15:48;-0.40;99.90
2687;DHT22;1353;51.386;7.028;2022-11-20T03:18:15;-0.30;99.90
2687;DHT22;1353;51.386;7.028;2022-11-20T03:20:41;-0.30;99.90
2687;DHT22;1353;51.386;7.028;2022-11-20T03:23:08;-0.20;99.90
2687;DHT22;1353;51.386;7.028;2022-11-20T03:25:35;-0.20;99.90
2687;DHT22;1353;51.386;7.028;2022-11-20T03:28:02;-0.10;99.90
2687;DHT22;1353;51.386;7.028;2022-11-20T03:30:28;-0.10;99.90
2687;DHT22;1353;51.386;7.028;2022-11-20T03:32:58;0.00;99.90
2687;DHT22;1353;51.386;7.028;2022-11-20T03:35:25;0.00;99.90
2687;DHT22;1353;51.386;7.028;2022-11-20T03:37:52;0.00;99.90
2687;DHT22;1353;51.386;7.028;2022-11-20T03:40:18;0.00;99.90
2687;DHT22;1353;51.386;7.028;2022-11-20T03:42:45;0.00;99.90
2687;DHT22;1353;51.386;7.028;2022-11-20T03:45:12;0.00;99.90
2687;DHT22;1353;51.386;7.028;2022-11-20T03:47:39;0.10;99.90
2687;DHT22;1353;51.386;7.028;2022-11-20T03:50:08;0.10;99.90
2687;DHT22;1353;51.386;7.028;2022-11-20T03:52:35;0.10;99.90
2687;DHT22;1353;51.386;7.028;2022-11-20T03:55:02;0.10;99.90
2687;DHT22;1353;51.386;7.028;2022-11-20T03:57:29;0.10;99.90
2687;DHT22;1353;51.386;7.028;2022-11-20T03:59:56;0.20;99.90
2687;DHT22;1353;51.386;7.028;2022-11-20T04:02:22;0.20;99.90
2687;DHT22;1353;51.386;7.028;2022-11-20T04:04:49;0.20;99.90
2687;DHT22;1353;51.386;7.028;2022-11-20T04:07:17;0.20;99.90
2687;DHT22;1353;51.386;7.028;2022-11-20T04:09:44;0.20;99.90
2687;DHT22;1353;51.386;7.028;2022-11-20T04:12:11;0.30;99.90
2687;DHT22;1353;51.386;7.028;2022-11-20T04:14:37;0.30;99.90
2687;DHT22;1353;51.386;7.028;2022-11-20T04:17:04;0.30;99.90
2687;DHT22;1353;51.386;7.028;2022-11-20T04:19:31;0.30;99.90
2687;DHT22;1353;51.386;7.028;2022-11-20T04:21:57;0.30;99.90
2687;DHT22;1353;51.386;7.028;2022-11-20T04:24:26;0.40;99.90
2687;DHT22;1353;51.386;7.028;2022-11-20T04:26:53;0.40;99.90
2687;DHT22;1353;51.386;7.028;2022-11-20T04:29:19;0.40;99.90
2687;DHT22;1353;51.386;7.028;2022-11-20T04:31:46;0.50;99.90
2687;DHT22;1353;51.386;7.028;2022-11-20T04:34:13;0.40;99.90
2687;DHT22;1353;51.386;7.028;2022-11-20T04:36:40;0.40;99.90
2687;DHT22;1353;51.386;7.028;2022-11-20T04:39:12;0.40;99.90
2687;DHT22;1353;51.386;7.028;2022-11-20T04:41:41;0.60;99.90
2687;DHT22;1353;51.386;7.028;2022-11-20T04:44:07;0.60;99.90
2687;DHT22;1353;51.386;7.028;2022-11-20T04:46:36;0.60;99.90
2687;DHT22;1353;51.386;7.028;2022-11-20T04:49:03;0.60;99.90
2687;DHT22;1353;51.386;7.028;2022-11-20T04:51:30;0.60;99.90
2687;DHT22;1353;51.386;7.028;2022-11-20T04:53:57;0.60;99.90
2687;DHT22;1353;51.386;7.028;2022-11-20T04:56:24;0.60;99.90
2687;DHT22;1353;51.386;7.028;2022-11-20T04:58:52;0.70;99.90
2687;DHT22;1353;51.386;7.028;2022-11-20T05:01:21;0.60;99.90
2687;DHT22;1353;51.386;7.028;2022-11-20T05:03:48;0.70;99.90
2687;DHT22;1353;51.386;7.028;2022-11-20T05:06:16;0.80;99.90
2687;DHT22;1353;51.386;7.028;2022-11-20T05:08:43;0.70;99.90
2687;DHT22;1353;51.386;7.028;2022-11-20T05:11:11;0.70;99.90
2687;DHT22;1353;51.386;7.028;2022-11-20T05:13:39;0.70;99.90
2687;DHT22;1353;51.386;7.028;2022-11-20T05:16:09;0.80;99.90
2687;DHT22;1353;51.386;7.028;2022-11-20T05:18:36;0.80;99.90
2687;DHT22;1353;51.386;7.028;2022-11-20T05:21:04;0.90;99.90
2687;DHT22;1353;51.386;7.028;2022-11-20T05:23:32;0.90;99.90
2687;DHT22;1353;51.386;7.028;2022-11-20T05:26:00;0.90;99.90
2687;DHT22;1353;51.386;7.028;2022-11-20T05:28:28;1.00;99.90
2687;DHT22;1353;51.386;7.028;2022-11-20T05:30:55;1.00;99.90
2687;DHT22;1353;51.386;7.028;2022-11-20T05:33:23;1.00;99.90
2687;DHT22;1353;51.386;7.028;2022-11-20T05:35:50;1.00;99.90
2687;DHT22;1353;51.386;7.028;2022-11-20T05:38:16;0.90;99.90
2687;DHT22;1353;51.386;7.028;2022-11-20T05:40:43;1.00;99.90
2687;DHT22;1353;51.386;7.028;2022-11-20T05:43:10;1.00;99.90
2687;DHT22;1353;51.386;7.028;2022-11-20T05:45:37;1.00;99.90
2687;DHT22;1353;51.386;7.028;2022-11-20T05:48:04;1.00;99.90
2687;DHT22;1353;51.386;7.028;2022-11-20T05:50:32;1.00;99.90
2687;DHT22;1353;51.386;7.028;2022-11-20T05:52:59;1.10;99.90
2687;DHT22;1353;51.386;7.028;2022-11-20T05:55:26;1.10;99.90
2687;DHT22;1353;51.386;7.028;2022-11-20T05:57:53;1.00;99.90
2687;DHT22;1353;51.386;7.028;2022-11-20T06:00:20;1.00;99.90
2687;DHT22;1353;51.386;7.028;2022-11-20T06:02:47;1.00;99.90
2687;DHT22;1353;51.386;7.028;2022-11-20T06:05:14;1.00;99.90
2687;DHT22;1353;51.386;7.028;2022-11-20T06:07:42;1.00;99.90
2687;DHT22;1353;51.386;7.028;2022-11-20T06:10:09;0.90;99.90
2687;DHT22;1353;51.386;7.028;2022-11-20T06:12:36;0.90;99.90
2687;DHT22;1353;51.386;7.028;2022-11-20T06:15:04;0.90;99.90
2687;DHT22;1353;51.386;7.028;2022-11-20T06:17:31;0.90;99.90
2687;DHT22;1353;51.386;7.028;2022-11-20T06:19:58;0.80;99.90
2687;DHT22;1353;51.386;7.028;2022-11-20T06:22:24;0.80;99.90
2687;DHT22;1353;51.386;7.028;2022-11-20T06:24:52;0.90;99.90
2687;DHT22;1353;51.386;7.028;2022-11-20T06:27:19;0.90;99.90
2687;DHT22;1353;51.386;7.028;2022-11-20T06:29:46;0.90;99.90
2687;DHT22;1353;51.386;7.028;2022-11-20T06:32:13;0.90;99.90
2687;DHT22;1353;51.386;7.028;2022-11-20T06:34:39;0.80;99.90
2687;DHT22;1353;51.386;7.028;2022-11-20T06:37:06;0.80;99.90
2687;DHT22;1353;51.386;7.028;2022-11-20T06:39:33;0.80;99.90
2687;DHT22;1353;51.386;7.028;2022-11-20T06:42:01;0.80;99.90
2687;DHT22;1353;51.386;7.028;2022-11-20T06:44:28;0.70;99.90
2687;DHT22;1353;51.386;7.028;2022-11-20T06:46:55;0.80;99.90
2687;DHT22;1353;51.386;7.028;2022-11-20T06:49:21;0.80;99.90
2687;DHT22;1353;51.386;7.028;2022-11-20T06:51:48;0.80;99.90
2687;DHT22;1353;51.386;7.028;2022-11-20T06:54:15;0.80;99.90
2687;DHT22;1353;51.386;7.028;2022-11-20T06:56:41;0.90;99.90
2687;DHT22;1353;51.386;7.028;2022-11-20T06:59:10;0.90;99.90
2687;DHT22;1353;51.386;7.028;2022-11-20T07:01:36;0.80;99.90
2687;DHT22;1353;51.386;7.028;2022-11-20T07:04:03;0.70;99.90
2687;DHT22;1353;51.386;7.028;2022-11-20T07:06:30;0.80;99.90
2687;DHT22;1353;51.386;7.028;2022-11-20T07:08:57;0.80;99.90
2687;DHT22;1353;51.386;7.028;2022-11-20T07:11:24;0.80;99.90
2687;DHT22;1353;51.386;7.028;2022-11-20T07:13:51;0.80;99.90
2687;DHT22;1353;51.386;7.028;2022-11-20T07:16:19;0.80;99.90
2687;DHT22;1353;51.386;7.028;2022-11-20T07:18:45;0.90;99.90
2687;DHT22;1353;51.386;7.028;2022-11-20T07:21:12;0.90;99.90
2687;DHT22;1353;51.386;7.028;2022-11-20T07:23:40;0.90;99.90
2687;DHT22;1353;51.386;7.028;2022-11-20T07:26:08;1.00;99.90
2687;DHT22;1353;51.386;7.028;2022-11-20T07:28:35;1.00;99.90
2687;DHT22;1353;51.386;7.028;2022-11-20T07:31:03;1.10;99.90
2687;DHT22;1353;51.386;7.028;2022-11-20T07:33:31;1.10;99.90
2687;DHT22;1353;51.386;7.028;2022-11-20T07:35:59;1.20;99.90
2687;DHT22;1353;51.386;7.028;2022-11-20T07:38:25;1.20;99.90
2687;DHT22;1353;51.386;7.028;2022-11-20T07:40:53;1.20;99.90
2687;DHT22;1353;51.386;7.028;2022-11-20T07:43:21;1.30;99.90
2687;DHT22;1353;51.386;7.028;2022-11-20T07:45:47;1.30;99.90
2687;DHT22;1353;51.386;7.028;2022-11-20T07:48:14;1.40;99.90
2687;DHT22;1353;51.386;7.028;2022-11-20T07:50:42;1.40;99.90
2687;DHT22;1353;51.386;7.028;2022-11-20T07:53:09;1.30;99.90
2687;DHT22;1353;51.386;7.028;2022-11-20T07:55:37;1.30;99.90
2687;DHT22;1353;51.386;7.028;2022-11-20T07:58:04;1.40;99.90
2687;DHT22;1353;51.386;7.028;2022-11-20T08:00:31;3.30;99.90
2687;DHT22;1353;51.386;7.028;2022-11-20T08:02:57;4.20;99.90
2687;DHT22;1353;51.386;7.028;2022-11-20T08:05:24;4.90;99.90
2687;DHT22;1353;51.386;7.028;2022-11-20T08:07:52;5.00;99.90
2687;DHT22;1353;51.386;7.028;2022-11-20T08:10:19;4.60;99.90
2687;DHT22;1353;51.386;7.028;2022-11-20T08:12:47;3.90;99.90
2687;DHT22;1353;51.386;7.028;2022-11-20T08:15:31;4.00;99.90
2687;DHT22;1353;51.386;7.028;2022-11-20T08:18:02;3.00;99.90
2687;DHT22;1353;51.386;7.028;2022-11-20T08:20:29;2.30;99.90
2687;DHT22;1353;51.386;7.028;2022-11-20T08:23:02;1.90;99.90
2687;DHT22;1353;51.386;7.028;2022-11-20T08:25:31;1.90;99.90
2687;DHT22;1353;51.386;7.028;2022-11-20T08:27:58;1.50;99.90
2687;DHT22;1353;51.386;7.028;2022-11-20T08:30:26;1.70;99.90
2687;DHT22;1353;51.386;7.028;2022-11-20T08:32:54;1.80;99.90
2687;DHT22;1353;51.386;7.028;2022-11-20T08:35:21;1.80;99.90
2687;DHT22;1353;51.386;7.028;2022-11-20T08:37:48;1.70;99.90
2687;DHT22;1353;51.386;7.028;2022-11-20T08:40:16;1.70;99.90
2687;DHT22;1353;51.386;7.028;2022-11-20T08:42:46;2.00;99.90
2687;DHT22;1353;51.386;7.028;2022-11-20T08:45:13;2.20;99.90
2687;DHT22;1353;51.386;7.028;2022-11-20T08:47:40;2.20;99.90
2687;DHT22;1353;51.386;7.028;2022-11-20T08:50:08;2.20;99.90
2687;DHT22;1353;51.386;7.028;2022-11-20T08:52:35;2.30;99.90
2687;DHT22;1353;51.386;7.028;2022-11-20T08:55:02;2.40;99.90
2687;DHT22;1353;51.386;7.028;2022-11-20T08:57:32;2.60;99.90
2687;DHT22;1353;51.386;7.028;2022-11-20T08:59:59;2.70;99.90
2687;DHT22;1353;51.386;7.028;2022-11-20T09:02:26;2.80;99.90
2687;DHT22;1353;51.386;7.028;2022-11-20T09:04:53;2.90;99.90
2687;DHT22;1353;51.386;7.028;2022-11-20T09:07:20;3.00;99.90
2687;DHT22;1353;51.386;7.028;2022-11-20T09:09:47;3.00;99.90
2687;DHT22;1353;51.386;7.028;2022-11-20T09:12:14;3.20;99.90
2687;DHT22;1353;51.386;7.028;2022-11-20T09:14:42;3.30;99.90
2687;DHT22;1353;51.386;7.028;2022-11-20T09:17:10;3.40;99.90
2687;DHT22;1353;51.386;7.028;2022-11-20T09:19:39;3.40;99.90
2687;DHT22;1353;51.386;7.028;2022-11-20T09:22:06;3.60;99.90
2687;DHT22;1353;51.386;7.028;2022-11-20T09:24:33;3.70;99.90
2687;DHT22;1353;51.386;7.028;2022-11-20T09:27:02;3.70;99.90
2687;DHT22;1353;51.386;7.028;2022-11-20T09:29:29;3.70;99.90
2687;DHT22;1353;51.386;7.028;2022-11-20T09:31:58;3.60;99.90
2687;DHT22;1353;51.386;7.028;2022-11-20T09:34:25;3.50;99.90
2687;DHT22;1353;51.386;7.028;2022-11-20T09:36:51;3.60;99.90
2687;DHT22;1353;51.386;7.028;2022-11-20T09:39:18;3.70;99.90
2687;DHT22;1353;51.386;7.028;2022-11-20T09:42:10;3.80;99.90
2687;DHT22;1353;51.386;7.028;2022-11-20T09:44:51;3.90;99.90
2687;DHT22;1353;51.386;7.028;2022-11-20T09:47:27;4.00;99.90
2687;DHT22;1353;51.386;7.028;2022-11-20T09:50:07;4.00;99.90
2687;DHT22;1353;51.386;7.028;2022-11-20T09:52:46;4.10;99.90
2687;DHT22;1353;51.386;7.028;2022-11-20T09:55:16;4.30;99.90
2687;DHT22;1353;51.386;7.028;2022-11-20T09:57:46;4.40;99.90
2687;DHT22;1353;51.386;7.028;2022-11-20T10:00:15;4.70;99.90
2687;DHT22;1353;51.386;7.028;2022-11-20T10:02:48;4.70;99.90
2687;DHT22;1353;51.386;7.028;2022-11-20T10:05:20;4.60;99.90
2687;DHT22;1353;51.386;7.028;2022-11-20T10:07:52;4.60;99.90
2687;DHT22;1353;51.386;7.028;2022-11-20T10:10:29;4.70;99.90
2687;DHT22;1353;51.386;7.028;2022-11-20T10:13:09;4.90;99.90
2687;DHT22;1353;51.386;7.028;2022-11-20T10:15:47;4.90;99.90
2687;DHT22;1353;51.386;7.028;2022-11-20T10:18:36;4.80;99.90
2687;DHT22;1353;51.386;7.028;2022-11-20T10:21:10;4.70;99.90
2687;DHT22;1353;51.386;7.028;2022-11-20T10:23:58;4.60;99.90
2687;DHT22;1353;51.386;7.028;2022-11-20T10:26:29;4.50;99.90
2687;DHT22;1353;51.386;7.028;2022-11-20T10:29:07;4.40;99.90
2687;DHT22;1353;51.386;7.028;2022-11-20T10:31:38;4.30;99.90
2687;DHT22;1353;51.386;7.028;2022-11-20T10:34:15;4.30;99.90
2687;DHT22;1353;51.386;7.028;2022-11-20T10:36:46;4.40;99.90
2687;DHT22;1353;51.386;7.028;2022-11-20T10:39:18;4.50;99.90
2687;DHT22;1353;51.386;7.028;2022-11-20T10:41:50;4.80;99.90
2687;DHT22;1353;51.386;7.028;2022-11-20T10:44:20;4.50;99.90
2687;DHT22;1353;51.386;7.028;2022-11-20T10:47:18;4.90;99.90
2687;DHT22;1353;51.386;7.028;2022-11-20T10:49:51;4.90;99.90
2687;DHT22;1353;51.386;7.028;2022-11-20T10:52:25;4.90;99.90
2687;DHT22;1353;51.386;7.028;2022-11-20T10:54:57;5.20;99.90
2687;DHT22;1353;51.386;7.028;2022-11-20T10:57:47;5.20;99.90
2687;DHT22;1353;51.386;7.028;2022-11-20T11:00:18;5.10;99.90
2687;DHT22;1353;51.386;7.028;2022-11-20T11:02:47;5.20;99.90
2687;DHT22;1353;51.386;7.028;2022-11-20T11:05:33;5.20;99.90
2687;DHT22;1353;51.386;7.028;2022-11-20T11:08:01;5.00;99.90
2687;DHT22;1353;51.386;7.028;2022-11-20T11:10:35;5.00;99.90
2687;DHT22;1353;51.386;7.028;2022-11-20T11:13:02;5.10;99.90
2687;DHT22;1353;51.386;7.028;2022-11-20T11:15:36;5.30;99.90
2687;DHT22;1353;51.386;7.028;2022-11-20T11:18:04;5.30;99.90
2687;DHT22;1353;51.386;7.028;2022-11-20T11:20:32;5.30;99.90
2687;DHT22;1353;51.386;7.028;2022-11-20T11:22:59;5.50;99.90
2687;DHT22;1353;51.386;7.028;2022-11-20T11:25:28;5.10;99.90
2687;DHT22;1353;51.386;7.028;2022-11-20T11:27:57;5.50;99.90
2687;DHT22;1353;51.386;7.028;2022-11-20T11:30:26;5.40;99.90
2687;DHT22;1353;51.386;7.028;2022-11-20T11:33:03;4.60;99.90
2687;DHT22;1353;51.386;7.028;2022-11-20T11:35:32;4.80;99.90
2687;DHT22;1353;51.386;7.028;2022-11-20T11:38:04;5.00;99.90
2687;DHT22;1353;51.386;7.028;2022-11-20T11:40:34;5.10;99.90
2687;DHT22;1353;51.386;7.028;2022-11-20T11:43:04;5.20;99.90
2687;DHT22;1353;51.386;7.028;2022-11-20T11:45:53;4.70;99.90
2687;DHT22;1353;51.386;7.028;2022-11-20T11:48:19;4.80;99.90
2687;DHT22;1353;51.386;7.028;2022-11-20T11:50:50;4.60;99.90
2687;DHT22;1353;51.386;7.028;2022-11-20T11:53:19;4.70;99.90
2687;DHT22;1353;51.386;7.028;2022-11-20T11:55:50;4.80;99.90
2687;DHT22;1353;51.386;7.028;2022-11-20T11:58:31;4.80;99.90
2687;DHT22;1353;51.386;7.028;2022-11-20T12:01:04;5.00;99.90
2687;DHT22;1353;51.386;7.028;2022-11-20T12:03:36;5.20;99.90
2687;DHT22;1353;51.386;7.028;2022-11-20T12:06:08;5.40;99.90
2687;DHT22;1353;51.386;7.028;2022-11-20T12:08:41;4.60;99.90
2687;DHT22;1353;51.386;7.028;2022-11-20T12:11:13;4.10;99.90
2687;DHT22;1353;51.386;7.028;2022-11-20T12:13:47;4.20;99.90
2687;DHT22;1353;51.386;7.028;2022-11-20T12:16:17;4.10;99.90
2687;DHT22;1353;51.386;7.028;2022-11-20T12:18:46;4.20;99.90
2687;DHT22;1353;51.386;7.028;2022-11-20T12:21:31;4.00;99.90
2687;DHT22;1353;51.386;7.028;2022-11-20T12:24:18;4.10;99.90
2687;DHT22;1353;51.386;7.028;2022-11-20T12:27:01;4.40;99.90
2687;DHT22;1353;51.386;7.028;2022-11-20T12:29:41;4.60;99.90
2687;DHT22;1353;51.386;7.028;2022-11-20T12:32:40;4.40;99.90
2687;DHT22;1353;51.386;7.028;2022-11-20T12:35:25;4.40;99.90
2687;DHT22;1353;51.386;7.028;2022-11-20T12:38:07;4.30;99.90
2687;DHT22;1353;51.386;7.028;2022-11-20T12:40:42;4.40;99.90
2687;DHT22;1353;51.386;7.028;2022-11-20T12:43:17;4.50;99.90
2687;DHT22;1353;51.386;7.028;2022-11-20T12:46:18;4.20;99.90
2687;DHT22;1353;51.386;7.028;2022-11-20T12:49:04;4.50;99.90
2687;DHT22;1353;51.386;7.028;2022-11-20T12:51:59;4.50;99.90
2687;DHT22;1353;51.386;7.028;2022-11-20T12:54:48;4.40;99.90
2687;DHT22;1353;51.386;7.028;2022-11-20T12:57:21;4.10;99.90
2687;DHT22;1353;51.386;7.028;2022-11-20T13:00:02;4.00;99.90
2687;DHT22;1353;51.386;7.028;2022-11-20T13:02:38;4.30;99.90
2687;DHT22;1353;51.386;7.028;2022-11-20T13:05:19;4.10;99.90
2687;DHT22;1353;51.386;7.028;2022-11-20T13:07:51;4.40;99.90
2687;DHT22;1353;51.386;7.028;2022-11-20T13:10:23;4.10;99.90
2687;DHT22;1353;51.386;7.028;2022-11-20T13:12:58;4.10;99.90
2687;DHT22;1353;51.386;7.028;2022-11-20T13:15:35;4.20;99.90
2687;DHT22;1353;51.386;7.028;2022-11-20T13:18:09;4.40;99.90
2687;DHT22;1353;51.386;7.028;2022-11-20T13:20:41;4.40;99.90
2687;DHT22;1353;51.386;7.028;2022-11-20T13:23:08;4.30;99.90
2687;DHT22;1353;51.386;7.028;2022-11-20T13:25:37;4.40;99.90
2687;DHT22;1353;51.386;7.028;2022-11-20T13:28:27;4.40;99.90
2687;DHT22;1353;51.386;7.028;2022-11-20T13:30:55;4.30;99.90
2687;DHT22;1353;51.386;7.028;2022-11-20T13:33:27;4.10;99.90
2687;DHT22;1353;51.386;7.028;2022-11-20T13:35:56;4.10;99.90
2687;DHT22;1353;51.386;7.028;2022-11-20T13:38:23;4.30;99.90
2687;DHT22;1353;51.386;7.028;2022-11-20T13:40:53;4.20;99.90
2687;DHT22;1353;51.386;7.028;2022-11-20T13:43:26;4.20;99.90
2687;DHT22;1353;51.386;7.028;2022-11-20T13:45:58;4.30;99.90
2687;DHT22;1353;51.386;7.028;2022-11-20T13:48:29;4.30;99.90
2687;DHT22;1353;51.386;7.028;2022-11-20T13:51:21;4.40;99.90
2687;DHT22;1353;51.386;7.028;2022-11-20T13:54:09;4.30;99.90
2687;DHT22;1353;51.386;7.028;2022-11-20T13:56:52;4.20;99.90
2687;DHT22;1353;51.386;7.028;2022-11-20T13:59:34;4.00;99.90
2687;DHT22;1353;51.386;7.028;2022-11-20T14:02:03;3.90;99.90
2687;DHT22;1353;51.386;7.028;2022-11-20T14:04:38;3.90;99.90
2687;DHT22;1353;51.386;7.028;2022-11-20T14:07:09;3.80;99.90
2687;DHT22;1353;51.386;7.028;2022-11-20T14:09:36;3.80;99.90
2687;DHT22;1353;51.386;7.028;2022-11-20T14:12:15;3.70;99.90
2687;DHT22;1353;51.386;7.028;2022-11-20T14:14:48;3.80;99.90
2687;DHT22;1353;51.386;7.028;2022-11-20T14:17:18;3.80;99.90
2687;DHT22;1353;51.386;7.028;2022-11-20T14:19:47;3.80;99.90
2687;DHT22;1353;51.386;7.028;2022-11-20T14:22:20;3.80;99.90
2687;DHT22;1353;51.386;7.028;2022-11-20T14:24:48;3.90;99.90
2687;DHT22;1353;51.386;7.028;2022-11-20T14:27:18;3.90;99.90
2687;DHT22;1353;51.386;7.028;2022-11-20T14:29:46;3.90;99.90
2687;DHT22;1353;51.386;7.028;2022-11-20T14:32:16;3.80;99.90
2687;DHT22;1353;51.386;7.028;2022-11-20T14:34:45;3.70;99.90
2687;DHT22;1353;51.386;7.028;2022-11-20T14:37:18;3.80;99.90
2687;DHT22;1353;51.386;7.028;2022-11-20T14:39:49;3.70;99.90
2687;DHT22;1353;51.386;7.028;2022-11-20T14:42:20;3.70;99.90
2687;DHT22;1353;51.386;7.028;2022-11-20T14:44:48;3.60;99.90
2687;DHT22;1353;51.386;7.028;2022-11-20T14:47:20;3.60;99.90
2687;DHT22;1353;51.386;7.028;2022-11-20T14:49:47;3.70;99.90
2687;DHT22;1353;51.386;7.028;2022-11-20T14:52:17;3.60;99.90
2687;DHT22;1353;51.386;7.028;2022-11-20T14:54:44;3.70;99.90
2687;DHT22;1353;51.386;7.028;2022-11-20T14:57:25;3.70;99.90
2687;DHT22;1353;51.386;7.028;2022-11-20T15:00:05;3.70;99.90
2687;DHT22;1353;51.386;7.028;2022-11-20T15:02:32;3.70;99.90
2687;DHT22;1353;51.386;7.028;2022-11-20T15:05:00;3.70;99.90
2687;DHT22;1353;51.386;7.028;2022-11-20T15:07:30;3.70;99.90
2687;DHT22;1353;51.386;7.028;2022-11-20T15:10:02;3.70;99.90
2687;DHT22;1353;51.386;7.028;2022-11-20T15:12:32;3.70;99.90
2687;DHT22;1353;51.386;7.028;2022-11-20T15:15:00;3.70;99.90
2687;DHT22;1353;51.386;7.028;2022-11-20T15:17:28;3.70;99.90
2687;DHT22;1353;51.386;7.028;2022-11-20T15:19:55;3.70;99.90
2687;DHT22;1353;51.386;7.028;2022-11-20T15:22:22;3.60;99.90
2687;DHT22;1353;51.386;7.028;2022-11-20T15:24:49;3.60;99.90
2687;DHT22;1353;51.386;7.028;2022-11-20T15:27:15;3.60;99.90
2687;DHT22;1353;51.386;7.028;2022-11-20T15:29:44;3.60;99.90
2687;DHT22;1353;51.386;7.028;2022-11-20T15:32:10;3.60;99.90
2687;DHT22;1353;51.386;7.028;2022-11-20T15:34:37;3.60;99.90
2687;DHT22;1353;51.386;7.028;2022-11-20T15:37:04;3.50;99.90
2687;DHT22;1353;51.386;7.028;2022-11-20T15:39:30;3.50;99.90
2687;DHT22;1353;51.386;7.028;2022-11-20T15:41:57;3.50;99.90
2687;DHT22;1353;51.386;7.028;2022-11-20T15:44:24;3.60;99.90
2687;DHT22;1353;51.386;7.028;2022-11-20T15:46:52;3.60;99.90
2687;DHT22;1353;51.386;7.028;2022-11-20T15:49:19;3.60;99.90
2687;DHT22;1353;51.386;7.028;2022-11-20T15:51:49;3.60;99.90
2687;DHT22;1353;51.386;7.028;2022-11-20T15:54:19;3.70;99.90
2687;DHT22;1353;51.386;7.028;2022-11-20T15:56:46;3.80;99.90
2687;DHT22;1353;51.386;7.028;2022-11-20T15:59:13;3.90;99.90
2687;DHT22;1353;51.386;7.028;2022-11-20T16:01:41;3.80;99.90
2687;DHT22;1353;51.386;7.028;2022-11-20T16:04:11;3.90;99.90
2687;DHT22;1353;51.386;7.028;2022-11-20T16:06:38;3.80;99.90
2687;DHT22;1353;51.386;7.028;2022-11-20T16:09:05;3.80;99.90
2687;DHT22;1353;51.386;7.028;2022-11-20T16:11:32;3.60;99.90
2687;DHT22;1353;51.386;7.028;2022-11-20T16:13:59;3.70;99.90
2687;DHT22;1353;51.386;7.028;2022-11-20T16:16:43;3.60;99.90
2687;DHT22;1353;51.386;7.028;2022-11-20T16:19:12;3.70;99.90
2687;DHT22;1353;51.386;7.028;2022-11-20T16:21:39;3.80;99.90
2687;DHT22;1353;51.386;7.028;2022-11-20T16:24:09;3.80;99.90
2687;DHT22;1353;51.386;7.028;2022-11-20T16:26:37;3.90;99.90
2687;DHT22;1353;51.386;7.028;2022-11-20T16:29:04;3.90;99.90
2687;DHT22;1353;51.386;7.028;2022-11-20T16:31:32;4.00;99.90
2687;DHT22;1353;51.386;7.028;2022-11-20T16:34:01;4.00;99.90